Lisco, Nebraska
Current Conditions -  °F | °C
As of 6:53 AM on Monday 24 Nov 2014 (Local Time) from KSNY Reporting Station
Clear Clear  
Wind Chill: 14°   Ceiling: Unl
Heat Index: 25°   Visibility: 10mi
Dew Point: 15°   Wind: 12mph
Humidity: 66%   Direction: 320°NW
Pressure: 29.82"   Gusts: NA
Location:  41.5°N, 102.62°W
Report Text: KSNY 241353Z AUTO 32010KT 10SM CLR M04/M09 A2982 RMK AO2 SLP129 T10391094
Loading
Personal Weather Stations






























Interactive Weather Map New forecast layout! Learn more

10-Day Weather Forecast

Advertisements
Track Severe Weather on mobile